Portada
METAR-TAF:

METAR-TAF

Aeroports :

Fort-de-France, Martinica

latitud: 14-36N, longitud: 061-00W, altitud: 5 m

Observació

L'informe es va fer fa 17 minuts, a les 22:00 UTC
Vent 8 kt del Est/Sud-Est
Temperatura 27°C
Humitat 74%
Pressió 1014 hPa
Visibilitat 10 km o més
sense núvols per sota de 1500 mi sense presència de cumulonimbus.

METAR: TFFF 272200Z AUTO 11008KT CAVOK 27/22 Q1014 NOSIG

Hora: 18:17 (22:17 UTC)

Pronòstic

L'informe es va fer fa 5 hores i 17 minuts, a les 17:00 UTC
Pronòstic vàlid del 27 a les 18 UTC al 28 a les 18 UTC
Vent 10 kt del Sud-Est
Visibilitat 10 km o més
Núvols disperses a una alçada de 3500 ft
Temporalment
l' 28 a les 00 UTC al 28 a les 11 UTC
Vent 2 kt amb direcció variable

TAF: TFFF 271700Z 2718/2818 13010KT 9999 SCT035 TEMPO 2800/2811 VRB02KT

Observacions i pronòstics meteorològics de més de 4000 aeroports (METAR i TAF).

Les estacions disponibles són els punts grocs i vermells al mapa.

Posi el ratolí al punt desitjat per veure el nom de l'estació.

Feu clic per veure les observacions i els pronòstics meteorològics.

Per canviar el mapa: feu clic els botons verds amb una creu de color negre per apropar; al botó verd amb un guió per allunyar la imatge; o en les fletxes verdes per a mapes adjacents.


METAR-TAF: